sensor_id;sensor_type;location;lat;lon;timestamp;pressure;altitude;pressure_sealevel;temperature;humidity
59971;BME280;45825;45.434;9.116;2023-05-21T00:01:12;100130.97;;;16.01;100.00
59971;BME280;45825;45.434;9.116;2023-05-21T00:03:41;100130.84;;;16.03;100.00
59971;BME280;45825;45.434;9.116;2023-05-21T00:06:06;100129.78;;;15.94;100.00
59971;BME280;45825;45.434;9.116;2023-05-21T00:08:32;100122.53;;;15.85;100.00
59971;BME280;45825;45.434;9.116;2023-05-21T00:10:58;100113.97;;;15.81;100.00
59971;BME280;45825;45.434;9.116;2023-05-21T00:13:23;100111.78;;;15.86;100.00
59971;BME280;45825;45.434;9.116;2023-05-21T00:15:49;100114.44;;;15.86;100.00
59971;BME280;45825;45.434;9.116;2023-05-21T00:18:14;100102.03;;;15.87;100.00
59971;BME280;45825;45.434;9.116;2023-05-21T00:20:40;100108.69;;;15.92;100.00
59971;BME280;45825;45.434;9.116;2023-05-21T00:23:05;100099.84;;;15.92;100.00
59971;BME280;45825;45.434;9.116;2023-05-21T00:25:31;100100.97;;;15.78;100.00
59971;BME280;45825;45.434;9.116;2023-05-21T00:27:57;100101.78;;;15.78;100.00
59971;BME280;45825;45.434;9.116;2023-05-21T00:30:22;100094.69;;;15.79;100.00
59971;BME280;45825;45.434;9.116;2023-05-21T00:32:47;100097.78;;;15.84;100.00
59971;BME280;45825;45.434;9.116;2023-05-21T00:35:13;100092.97;;;15.89;100.00
59971;BME280;45825;45.434;9.116;2023-05-21T00:37:38;100085.63;;;15.82;100.00
59971;BME280;45825;45.434;9.116;2023-05-21T00:40:05;100093.56;;;15.82;100.00
59971;BME280;45825;45.434;9.116;2023-05-21T00:42:33;100093.81;;;15.78;100.00
59971;BME280;45825;45.434;9.116;2023-05-21T00:45:06;100087.69;;;15.78;100.00
59971;BME280;45825;45.434;9.116;2023-05-21T00:47:33;100087.44;;;15.81;100.00
59971;BME280;45825;45.434;9.116;2023-05-21T00:50:01;100090.22;;;15.79;100.00
59971;BME280;45825;45.434;9.116;2023-05-21T00:52:28;100087.91;;;15.86;100.00
59971;BME280;45825;45.434;9.116;2023-05-21T00:54:54;100082.72;;;15.85;100.00
59971;BME280;45825;45.434;9.116;2023-05-21T00:57:21;100071.75;;;15.89;100.00
59971;BME280;45825;45.434;9.116;2023-05-21T00:59:51;100078.63;;;15.92;100.00
59971;BME280;45825;45.434;9.116;2023-05-21T01:02:16;100082.75;;;15.96;100.00
59971;BME280;45825;45.434;9.116;2023-05-21T01:04:44;100081.78;;;15.97;100.00
59971;BME280;45825;45.434;9.116;2023-05-21T01:07:09;100074.06;;;15.94;100.00
59971;BME280;45825;45.434;9.116;2023-05-21T01:09:34;100077.91;;;15.90;100.00
59971;BME280;45825;45.434;9.116;2023-05-21T01:12:00;100073.91;;;15.96;100.00
59971;BME280;45825;45.434;9.116;2023-05-21T01:14:26;100078.41;;;15.95;100.00
59971;BME280;45825;45.434;9.116;2023-05-21T01:16:51;100068.75;;;15.94;100.00
59971;BME280;45825;45.434;9.116;2023-05-21T01:19:19;100070.44;;;15.95;100.00
59971;BME280;45825;45.434;9.116;2023-05-21T01:21:48;100068.63;;;15.96;100.00
59971;BME280;45825;45.434;9.116;2023-05-21T01:24:15;100062.69;;;16.03;100.00
59971;BME280;45825;45.434;9.116;2023-05-21T01:26:40;100066.81;;;15.96;100.00
59971;BME280;45825;45.434;9.116;2023-05-21T01:29:08;100068.16;;;15.90;100.00
59971;BME280;45825;45.434;9.116;2023-05-21T01:34:21;100060.19;;;15.90;100.00
59971;BME280;45825;45.434;9.116;2023-05-21T01:36:53;100053.19;;;15.89;100.00
59971;BME280;45825;45.434;9.116;2023-05-21T01:39:31;100058.38;;;15.91;100.00
59971;BME280;45825;45.434;9.116;2023-05-21T01:41:59;100050.91;;;15.96;100.00
59971;BME280;45825;45.434;9.116;2023-05-21T01:44:27;100052.59;;;15.97;100.00
59971;BME280;45825;45.434;9.116;2023-05-21T01:46:54;100061.38;;;15.98;100.00
59971;BME280;45825;45.434;9.116;2023-05-21T01:49:21;100056.81;;;16.00;100.00
59971;BME280;45825;45.434;9.116;2023-05-21T01:51:47;100054.84;;;16.02;100.00
59971;BME280;45825;45.434;9.116;2023-05-21T01:54:12;100049.81;;;15.99;100.00
59971;BME280;45825;45.434;9.116;2023-05-21T01:56:38;100048.69;;;16.01;100.00
59971;BME280;45825;45.434;9.116;2023-05-21T01:59:03;100046.19;;;16.00;100.00
59971;BME280;45825;45.434;9.116;2023-05-21T02:01:29;100050.19;;;15.94;100.00
59971;BME280;45825;45.434;9.116;2023-05-21T02:03:55;100047.53;;;15.94;100.00
59971;BME280;45825;45.434;9.116;2023-05-21T02:06:21;100045.00;;;15.92;100.00
59971;BME280;45825;45.434;9.116;2023-05-21T02:08:47;100052.25;;;15.90;100.00
59971;BME280;45825;45.434;9.116;2023-05-21T02:11:12;100049.59;;;15.90;100.00
59971;BME280;45825;45.434;9.116;2023-05-21T02:13:37;100050.53;;;15.89;100.00
59971;BME280;45825;45.434;9.116;2023-05-21T02:16:07;100045.72;;;15.95;100.00
59971;BME280;45825;45.434;9.116;2023-05-21T02:18:36;100049.56;;;16.02;100.00
59971;BME280;45825;45.434;9.116;2023-05-21T02:21:01;100043.19;;;15.93;100.00
59971;BME280;45825;45.434;9.116;2023-05-21T02:23:26;100039.91;;;15.89;100.00
59971;BME280;45825;45.434;9.116;2023-05-21T02:25:52;100043.66;;;15.87;100.00
59971;BME280;45825;45.434;9.116;2023-05-21T02:28:17;100038.13;;;15.90;100.00
59971;BME280;45825;45.434;9.116;2023-05-21T02:30:42;100031.72;;;15.92;100.00
59971;BME280;45825;45.434;9.116;2023-05-21T02:33:08;100035.34;;;15.91;100.00
59971;BME280;45825;45.434;9.116;2023-05-21T02:35:33;100035.25;;;15.93;100.00
59971;BME280;45825;45.434;9.116;2023-05-21T02:37:58;100021.13;;;15.92;100.00
59971;BME280;45825;45.434;9.116;2023-05-21T02:40:26;100026.88;;;15.86;100.00
59971;BME280;45825;45.434;9.116;2023-05-21T02:42:52;100027.03;;;15.85;100.00
59971;BME280;45825;45.434;9.116;2023-05-21T02:45:17;100029.41;;;15.88;100.00
59971;BME280;45825;45.434;9.116;2023-05-21T02:47:42;100023.50;;;15.84;100.00
59971;BME280;45825;45.434;9.116;2023-05-21T02:50:08;100020.16;;;15.82;100.00
59971;BME280;45825;45.434;9.116;2023-05-21T02:52:34;100015.09;;;15.79;100.00
59971;BME280;45825;45.434;9.116;2023-05-21T02:54:59;100017.53;;;15.71;100.00
59971;BME280;45825;45.434;9.116;2023-05-21T02:57:24;100020.91;;;15.73;100.00
59971;BME280;45825;45.434;9.116;2023-05-21T02:59:50;100015.34;;;15.76;100.00
59971;BME280;45825;45.434;9.116;2023-05-21T03:02:15;100012.69;;;15.76;100.00
59971;BME280;45825;45.434;9.116;2023-05-21T03:04:40;100009.31;;;15.74;100.00
59971;BME280;45825;45.434;9.116;2023-05-21T03:07:14;100011.53;;;15.69;100.00
59971;BME280;45825;45.434;9.116;2023-05-21T03:09:40;100019.69;;;15.65;100.00
59971;BME280;45825;45.434;9.116;2023-05-21T03:12:06;100023.81;;;15.70;100.00
59971;BME280;45825;45.434;9.116;2023-05-21T03:14:32;100038.25;;;15.77;100.00
59971;BME280;45825;45.434;9.116;2023-05-21T03:16:57;100045.63;;;15.73;100.00
59971;BME280;45825;45.434;9.116;2023-05-21T03:19:23;100048.13;;;15.75;100.00
59971;BME280;45825;45.434;9.116;2023-05-21T03:21:48;100048.13;;;15.75;100.00
59971;BME280;45825;45.434;9.116;2023-05-21T03:24:14;100047.38;;;15.84;100.00
59971;BME280;45825;45.434;9.116;2023-05-21T03:26:40;100048.09;;;15.86;100.00
59971;BME280;45825;45.434;9.116;2023-05-21T03:29:05;100056.06;;;15.86;100.00
59971;BME280;45825;45.434;9.116;2023-05-21T03:31:30;100046.78;;;15.92;100.00
59971;BME280;45825;45.434;9.116;2023-05-21T03:33:55;100031.84;;;15.91;100.00
59971;BME280;45825;45.434;9.116;2023-05-21T03:36:21;100027.50;;;15.90;100.00
59971;BME280;45825;45.434;9.116;2023-05-21T03:38:46;100032.81;;;15.90;100.00
59971;BME280;45825;45.434;9.116;2023-05-21T03:41:11;100034.28;;;15.94;100.00
59971;BME280;45825;45.434;9.116;2023-05-21T03:43:37;100029.94;;;15.93;100.00
59971;BME280;45825;45.434;9.116;2023-05-21T03:46:02;100041.50;;;15.92;100.00
59971;BME280;45825;45.434;9.116;2023-05-21T03:48:27;100042.78;;;15.98;100.00
59971;BME280;45825;45.434;9.116;2023-05-21T03:50:53;100047.88;;;16.01;100.00
59971;BME280;45825;45.434;9.116;2023-05-21T03:53:18;100039.75;;;16.02;100.00
59971;BME280;45825;45.434;9.116;2023-05-21T03:55:43;100038.72;;;15.94;100.00
59971;BME280;45825;45.434;9.116;2023-05-21T03:58:09;100032.31;;;15.96;100.00
59971;BME280;45825;45.434;9.116;2023-05-21T04:00:35;100028.81;;;15.96;100.00
59971;BME280;45825;45.434;9.116;2023-05-21T04:03:05;100031.09;;;16.00;100.00
59971;BME280;45825;45.434;9.116;2023-05-21T04:05:31;100030.28;;;16.00;100.00
59971;BME280;45825;45.434;9.116;2023-05-21T04:07:56;100026.31;;;15.94;100.00
59971;BME280;45825;45.434;9.116;2023-05-21T04:10:22;100035.81;;;15.97;100.00
59971;BME280;45825;45.434;9.116;2023-05-21T04:12:48;100030.66;;;15.95;100.00
59971;BME280;45825;45.434;9.116;2023-05-21T04:15:16;100041.13;;;15.97;100.00
59971;BME280;45825;45.434;9.116;2023-05-21T04:17:42;100029.78;;;15.95;100.00
59971;BME280;45825;45.434;9.116;2023-05-21T04:20:12;100023.66;;;15.94;100.00
59971;BME280;45825;45.434;9.116;2023-05-21T04:22:38;100032.66;;;16.03;100.00
59971;BME280;45825;45.434;9.116;2023-05-21T04:25:03;100027.47;;;16.01;100.00
59971;BME280;45825;45.434;9.116;2023-05-21T04:27:29;100024.97;;;16.00;100.00
59971;BME280;45825;45.434;9.116;2023-05-21T04:29:54;100032.78;;;16.01;100.00
59971;BME280;45825;45.434;9.116;2023-05-21T04:32:20;100022.03;;;16.03;100.00
59971;BME280;45825;45.434;9.116;2023-05-21T04:34:46;100032.66;;;16.03;100.00
59971;BME280;45825;45.434;9.116;2023-05-21T04:37:11;100028.44;;;16.00;100.00
59971;BME280;45825;45.434;9.116;2023-05-21T04:39:36;100027.72;;;15.98;100.00
59971;BME280;45825;45.434;9.116;2023-05-21T04:42:02;100023.13;;;16.00;100.00
59971;BME280;45825;45.434;9.116;2023-05-21T04:44:28;100020.81;;;16.07;100.00
59971;BME280;45825;45.434;9.116;2023-05-21T04:46:54;100021.06;;;16.04;100.00
59971;BME280;45825;45.434;9.116;2023-05-21T04:49:21;100022.75;;;16.05;100.00
59971;BME280;45825;45.434;9.116;2023-05-21T04:51:46;100025.88;;;16.10;100.00
59971;BME280;45825;45.434;9.116;2023-05-21T04:54:13;100019.59;;;16.11;100.00
59971;BME280;45825;45.434;9.116;2023-05-21T04:56:38;100022.59;;;16.18;100.00
59971;BME280;45825;45.434;9.116;2023-05-21T04:59:04;100022.44;;;16.19;100.00
59971;BME280;45825;45.434;9.116;2023-05-21T05:01:30;100019.69;;;16.21;100.00
59971;BME280;45825;45.434;9.116;2023-05-21T05:03:56;100028.63;;;16.20;100.00
59971;BME280;45825;45.434;9.116;2023-05-21T05:06:21;100025.09;;;16.19;100.00
59971;BME280;45825;45.434;9.116;2023-05-21T05:08:49;100022.34;;;16.21;100.00
59971;BME280;45825;45.434;9.116;2023-05-21T05:11:15;100016.63;;;16.26;100.00
59971;BME280;45825;45.434;9.116;2023-05-21T05:13:40;100018.22;;;16.28;100.00
59971;BME280;45825;45.434;9.116;2023-05-21T05:16:06;100021.69;;;16.29;100.00
59971;BME280;45825;45.434;9.116;2023-05-21T05:18:32;100023.72;;;16.37;100.00
59971;BME280;45825;45.434;9.116;2023-05-21T05:20:58;100014.19;;;16.34;100.00
59971;BME280;45825;45.434;9.116;2023-05-21T05:23:23;100017.56;;;16.36;100.00
59971;BME280;45825;45.434;9.116;2023-05-21T05:25:49;100015.34;;;16.41;100.00
59971;BME280;45825;45.434;9.116;2023-05-21T05:28:14;100013.53;;;16.42;100.00
59971;BME280;45825;45.434;9.116;2023-05-21T05:30:39;100013.44;;;16.43;100.00
59971;BME280;45825;45.434;9.116;2023-05-21T05:33:04;100015.09;;;16.44;100.00
59971;BME280;45825;45.434;9.116;2023-05-21T05:35:30;100014.13;;;16.45;100.00
59971;BME280;45825;45.434;9.116;2023-05-21T05:37:55;100019.75;;;16.52;100.00
59971;BME280;45825;45.434;9.116;2023-05-21T05:40:21;100022.03;;;16.57;100.00
59971;BME280;45825;45.434;9.116;2023-05-21T05:42:46;100014.06;;;16.57;100.00
59971;BME280;45825;45.434;9.116;2023-05-21T05:45:13;100015.75;;;16.58;100.00
59971;BME280;45825;45.434;9.116;2023-05-21T05:47:39;100020.19;;;16.57;100.00
59971;BME280;45825;45.434;9.116;2023-05-21T05:50:04;100014.38;;;16.64;100.00
59971;BME280;45825;45.434;9.116;2023-05-21T05:52:30;100010.34;;;16.69;100.00
59971;BME280;45825;45.434;9.116;2023-05-21T05:54:55;100014.09;;;16.67;100.00
59971;BME280;45825;45.434;9.116;2023-05-21T05:57:20;100013.59;;;16.73;100.00
59971;BME280;45825;45.434;9.116;2023-05-21T05:59:46;100004.19;;;16.69;100.00
59971;BME280;45825;45.434;9.116;2023-05-21T06:02:11;100015.09;;;16.66;100.00
59971;BME280;45825;45.434;9.116;2023-05-21T06:04:36;100014.41;;;16.73;100.00
59971;BME280;45825;45.434;9.116;2023-05-21T06:07:02;100004.34;;;16.67;100.00
59971;BME280;45825;45.434;9.116;2023-05-21T06:09:27;100016.75;;;16.67;100.00
59971;BME280;45825;45.434;9.116;2023-05-21T06:11:53;100015.34;;;16.62;100.00
59971;BME280;45825;45.434;9.116;2023-05-21T06:14:18;100004.63;;;16.64;100.00
59971;BME280;45825;45.434;9.116;2023-05-21T06:16:43;100011.91;;;16.72;100.00
59971;BME280;45825;45.434;9.116;2023-05-21T06:19:08;100006.72;;;16.70;100.00
59971;BME280;45825;45.434;9.116;2023-05-21T06:21:34;99999.34;;;16.74;100.00
59971;BME280;45825;45.434;9.116;2023-05-21T06:23:59;100005.34;;;16.76;100.00
59971;BME280;45825;45.434;9.116;2023-05-21T06:26:24;100000.31;;;16.73;100.00
59971;BME280;45825;45.434;9.116;2023-05-21T06:28:50;99997.66;;;16.73;100.00
59971;BME280;45825;45.434;9.116;2023-05-21T06:31:17;100004.53;;;16.75;100.00
59971;BME280;45825;45.434;9.116;2023-05-21T06:33:42;100011.75;;;16.73;100.00
59971;BME280;45825;45.434;9.116;2023-05-21T06:36:08;100004.47;;;16.66;100.00
59971;BME280;45825;45.434;9.116;2023-05-21T06:38:33;100006.59;;;16.72;100.00
59971;BME280;45825;45.434;9.116;2023-05-21T06:40:58;100008.00;;;16.76;100.00
59971;BME280;45825;45.434;9.116;2023-05-21T06:43:24;100008.00;;;16.76;100.00
59971;BME280;45825;45.434;9.116;2023-05-21T06:45:49;100008.88;;;16.76;100.00
59971;BME280;45825;45.434;9.116;2023-05-21T06:48:15;100011.69;;;16.85;100.00
59971;BME280;45825;45.434;9.116;2023-05-21T06:50:41;100007.34;;;16.84;100.00
59971;BME280;45825;45.434;9.116;2023-05-21T06:53:07;100005.28;;;16.87;100.00
59971;BME280;45825;45.434;9.116;2023-05-21T06:55:32;100016.94;;;16.96;100.00
59971;BME280;45825;45.434;9.116;2023-05-21T06:57:57;100001.00;;;16.96;100.00
59971;BME280;45825;45.434;9.116;2023-05-21T07:00:23;100001.81;;;16.97;100.00
59971;BME280;45825;45.434;9.116;2023-05-21T07:02:48;100005.91;;;17.01;100.00
59971;BME280;45825;45.434;9.116;2023-05-21T07:05:14;100001.81;;;16.97;100.00
59971;BME280;45825;45.434;9.116;2023-05-21T07:07:39;100005.00;;;16.90;100.00
59971;BME280;45825;45.434;9.116;2023-05-21T07:10:05;100002.22;;;16.92;100.00
59971;BME280;45825;45.434;9.116;2023-05-21T07:12:30;99998.34;;;16.96;100.00
59971;BME280;45825;45.434;9.116;2023-05-21T07:14:55;100005.34;;;16.97;100.00
59971;BME280;45825;45.434;9.116;2023-05-21T07:17:21;100001.56;;;17.00;100.00
59971;BME280;45825;45.434;9.116;2023-05-21T07:19:46;100000.19;;;17.06;100.00
59971;BME280;45825;45.434;9.116;2023-05-21T07:22:11;100014.13;;;16.98;100.00
59971;BME280;45825;45.434;9.116;2023-05-21T07:24:37;100007.63;;;17.02;100.00
59971;BME280;45825;45.434;9.116;2023-05-21T07:27:02;100009.47;;;17.11;100.00
59971;BME280;45825;45.434;9.116;2023-05-21T07:29:28;100003.31;;;17.11;100.00
59971;BME280;45825;45.434;9.116;2023-05-21T07:31:53;100007.13;;;17.18;100.00
59971;BME280;45825;45.434;9.116;2023-05-21T07:34:18;99998.88;;;17.21;100.00
59971;BME280;45825;45.434;9.116;2023-05-21T07:36:43;99994.97;;;17.25;100.00
59971;BME280;45825;45.434;9.116;2023-05-21T07:39:09;99996.13;;;17.33;100.00
59971;BME280;45825;45.434;9.116;2023-05-21T07:41:34;99995.25;;;17.32;100.00
59971;BME280;45825;45.434;9.116;2023-05-21T07:44:00;99992.94;;;17.49;100.00
59971;BME280;45825;45.434;9.116;2023-05-21T07:46:25;99999.41;;;17.56;100.00
59971;BME280;45825;45.434;9.116;2023-05-21T07:48:51;99990.84;;;17.62;100.00
59971;BME280;45825;45.434;9.116;2023-05-21T07:51:16;99997.59;;;17.76;100.00
59971;BME280;45825;45.434;9.116;2023-05-21T07:53:41;100005.16;;;17.81;100.00
59971;BME280;45825;45.434;9.116;2023-05-21T07:56:07;100004.59;;;17.87;100.00
59971;BME280;45825;45.434;9.116;2023-05-21T07:58:32;99997.34;;;17.89;100.00
59971;BME280;45825;45.434;9.116;2023-05-21T08:00:59;100008.38;;;17.94;100.00
59971;BME280;45825;45.434;9.116;2023-05-21T08:03:25;100006.00;;;18.01;100.00
59971;BME280;45825;45.434;9.116;2023-05-21T08:05:50;99999.19;;;18.08;100.00
59971;BME280;45825;45.434;9.116;2023-05-21T08:08:17;100003.22;;;18.12;100.00
59971;BME280;45825;45.434;9.116;2023-05-21T08:10:43;100004.38;;;18.20;100.00
59971;BME280;45825;45.434;9.116;2023-05-21T08:13:10;100005.63;;;18.25;100.00
59971;BME280;45825;45.434;9.116;2023-05-21T08:15:35;100010.09;;;18.35;100.00
59971;BME280;45825;45.434;9.116;2023-05-21T08:18:01;100012.03;;;18.42;100.00
59971;BME280;45825;45.434;9.116;2023-05-21T08:20:26;100012.75;;;18.54;100.00
59971;BME280;45825;45.434;9.116;2023-05-21T08:22:51;100020.44;;;18.57;100.00
59971;BME280;45825;45.434;9.116;2023-05-21T08:25:18;100020.41;;;18.67;100.00
59971;BME280;45825;45.434;9.116;2023-05-21T08:27:43;100013.38;;;18.76;100.00
59971;BME280;45825;45.434;9.116;2023-05-21T08:30:08;100026.25;;;18.91;100.00
59971;BME280;45825;45.434;9.116;2023-05-21T08:32:36;100030.28;;;18.95;100.00
59971;BME280;45825;45.434;9.116;2023-05-21T08:35:01;100026.09;;;19.02;100.00
59971;BME280;45825;45.434;9.116;2023-05-21T08:37:26;100033.34;;;19.10;100.00
59971;BME280;45825;45.434;9.116;2023-05-21T08:39:52;100034.22;;;19.01;100.00
59971;BME280;45825;45.434;9.116;2023-05-21T08:42:26;100053.44;;;18.94;100.00
59971;BME280;45825;45.434;9.116;2023-05-21T08:44:59;100063.84;;;18.88;100.00
59971;BME280;45825;45.434;9.116;2023-05-21T08:47:28;100072.28;;;18.83;100.00
59971;BME280;45825;45.434;9.116;2023-05-21T08:49:56;100086.00;;;18.88;100.00
59971;BME280;45825;45.434;9.116;2023-05-21T08:52:23;100093.47;;;18.55;100.00
59971;BME280;45825;45.434;9.116;2023-05-21T08:54:51;100104.69;;;18.78;100.00
59971;BME280;45825;45.434;9.116;2023-05-21T08:57:18;100088.09;;;18.84;100.00
59971;BME280;45825;45.434;9.116;2023-05-21T08:59:44;100092.63;;;18.84;100.00
59971;BME280;45825;45.434;9.116;2023-05-21T09:02:12;100093.88;;;18.70;100.00
59971;BME280;45825;45.434;9.116;2023-05-21T09:04:41;100090.25;;;18.81;100.00
59971;BME280;45825;45.434;9.116;2023-05-21T09:07:13;100094.44;;;18.74;100.00
59971;BME280;45825;45.434;9.116;2023-05-21T09:09:50;100092.63;;;18.74;100.00
59971;BME280;45825;45.434;9.116;2023-05-21T09:12:19;100087.00;;;18.67;100.00
59971;BME280;45825;45.434;9.116;2023-05-21T09:14:46;100083.22;;;18.70;100.00
59971;BME280;45825;45.434;9.116;2023-05-21T09:17:14;100081.97;;;18.64;100.00
59971;BME280;45825;45.434;9.116;2023-05-21T09:22:41;100075.53;;;18.67;100.00
59971;BME280;45825;45.434;9.116;2023-05-21T09:25:12;100076.66;;;18.64;100.00
59971;BME280;45825;45.434;9.116;2023-05-21T09:27:38;100078.06;;;18.59;100.00
59971;BME280;45825;45.434;9.116;2023-05-21T09:30:08;100073.56;;;18.49;100.00
59971;BME280;45825;45.434;9.116;2023-05-21T09:32:34;100074.69;;;18.47;100.00
59971;BME280;45825;45.434;9.116;2023-05-21T09:35:10;100071.19;;;18.46;100.00
59971;BME280;45825;45.434;9.116;2023-05-21T09:37:37;100068.38;;;18.48;100.00
59971;BME280;45825;45.434;9.116;2023-05-21T09:40:09;100076.25;;;18.49;100.00
59971;BME280;45825;45.434;9.116;2023-05-21T09:42:36;100077.09;;;18.50;100.00
59971;BME280;45825;45.434;9.116;2023-05-21T09:45:02;100068.81;;;18.53;100.00
59971;BME280;45825;45.434;9.116;2023-05-21T09:47:28;100072.03;;;18.56;100.00
59971;BME280;45825;45.434;9.116;2023-05-21T09:49:57;100075.97;;;18.62;100.00
59971;BME280;45825;45.434;9.116;2023-05-21T09:52:23;100075.66;;;18.65;100.00
59971;BME280;45825;45.434;9.116;2023-05-21T09:54:52;100076.91;;;18.71;100.00
59971;BME280;45825;45.434;9.116;2023-05-21T09:57:27;100071.03;;;18.77;100.00
59971;BME280;45825;45.434;9.116;2023-05-21T09:59:53;100077.47;;;18.75;100.00
59971;BME280;45825;45.434;9.116;2023-05-21T10:02:20;100081.09;;;18.83;100.00
59971;BME280;45825;45.434;9.116;2023-05-21T10:04:47;100081.66;;;18.87;100.00
59971;BME280;45825;45.434;9.116;2023-05-21T10:07:22;100080.50;;;18.99;100.00
59971;BME280;45825;45.434;9.116;2023-05-21T10:09:53;100079.38;;;19.12;100.00
59971;BME280;45825;45.434;9.116;2023-05-21T10:12:22;100073.56;;;19.26;100.00
59971;BME280;45825;45.434;9.116;2023-05-21T10:14:58;100075.75;;;19.41;100.00
59971;BME280;45825;45.434;9.116;2023-05-21T10:17:26;100075.72;;;19.51;100.00
59971;BME280;45825;45.434;9.116;2023-05-21T10:19:54;100079.03;;;19.63;100.00
59971;BME280;45825;45.434;9.116;2023-05-21T10:22:22;100073.25;;;19.86;100.00
59971;BME280;45825;45.434;9.116;2023-05-21T10:24:49;100070.72;;;19.94;100.00
59971;BME280;45825;45.434;9.116;2023-05-21T10:27:15;100073.56;;;20.10;100.00
59971;BME280;45825;45.434;9.116;2023-05-21T10:29:42;100070.66;;;20.22;100.00
59971;BME280;45825;45.434;9.116;2023-05-21T10:32:11;100082.63;;;20.36;100.00
59971;BME280;45825;45.434;9.116;2023-05-21T10:34:37;100073.69;;;20.45;100.00
59971;BME280;45825;45.434;9.116;2023-05-21T10:37:03;100080.63;;;20.56;100.00
59971;BME280;45825;45.434;9.116;2023-05-21T10:39:29;100074.41;;;20.74;100.00
59971;BME280;45825;45.434;9.116;2023-05-21T10:42:20;100067.16;;;20.84;100.00
59971;BME280;45825;45.434;9.116;2023-05-21T10:55:33;100051.88;;;21.81;100.00
59971;BME280;45825;45.434;9.116;2023-05-21T10:58:16;100043.88;;;21.89;100.00
59971;BME280;45825;45.434;9.116;2023-05-21T11:00:46;100047.41;;;21.89;100.00
59971;BME280;45825;45.434;9.116;2023-05-21T11:03:12;100045.38;;;22.00;100.00
59971;BME280;45825;45.434;9.116;2023-05-21T11:05:51;100054.28;;;22.25;100.00
59971;BME280;45825;45.434;9.116;2023-05-21T11:08:27;100048.47;;;22.55;100.00
59971;BME280;45825;45.434;9.116;2023-05-21T11:10:56;100041.22;;;22.47;100.00
59971;BME280;45825;45.434;9.116;2023-05-21T11:13:26;100041.09;;;22.49;100.00
59971;BME280;45825;45.434;9.116;2023-05-21T11:21:23;100041.09;;;22.49;100.00
59971;BME280;45825;45.434;9.116;2023-05-21T11:24:04;100042.25;;;22.54;100.00
59971;BME280;45825;45.434;9.116;2023-05-21T11:29:17;100033.84;;;22.66;100.00
59971;BME280;45825;45.434;9.116;2023-05-21T11:31:47;100034.19;;;22.71;100.00
59971;BME280;45825;45.434;9.116;2023-05-21T11:34:23;100029.31;;;22.83;100.00
59971;BME280;45825;45.434;9.116;2023-05-21T11:39:48;100021.13;;;23.33;100.00
59971;BME280;45825;45.434;9.116;2023-05-21T11:42:33;100016.78;;;23.32;100.00
59971;BME280;45825;45.434;9.116;2023-05-21T11:45:02;100020.78;;;23.19;100.00
59971;BME280;45825;45.434;9.116;2023-05-21T11:47:29;100023.81;;;23.33;100.00
59971;BME280;45825;45.434;9.116;2023-05-21T11:49:57;100013.50;;;23.44;100.00
59971;BME280;45825;45.434;9.116;2023-05-21T11:52:23;100013.88;;;23.33;100.00
59971;BME280;45825;45.434;9.116;2023-05-21T11:54:51;100008.66;;;23.40;100.00
59971;BME280;45825;45.434;9.116;2023-05-21T11:57:20;100021.03;;;23.49;100.00
59971;BME280;45825;45.434;9.116;2023-05-21T11:59:46;100015.31;;;23.52;100.00
59971;BME280;45825;45.434;9.116;2023-05-21T12:02:20;100008.75;;;23.55;100.00
59971;BME280;45825;45.434;9.116;2023-05-21T12:04:46;100015.09;;;23.62;100.00
59971;BME280;45825;45.434;9.116;2023-05-21T12:07:14;100012.53;;;23.69;100.00
59971;BME280;45825;45.434;9.116;2023-05-21T12:12:09;100008.72;;;23.63;100.00
59971;BME280;45825;45.434;9.116;2023-05-21T12:14:36;100015.63;;;23.57;100.00
59971;BME280;45825;45.434;9.116;2023-05-21T12:17:02;100018.34;;;23.49;100.00
59971;BME280;45825;45.434;9.116;2023-05-21T12:19:32;100018.97;;;23.60;100.00
59971;BME280;45825;45.434;9.116;2023-05-21T12:22:05;100015.22;;;23.69;100.00
59971;BME280;45825;45.434;9.116;2023-05-21T12:24:31;100011.84;;;23.75;100.00
59971;BME280;45825;45.434;9.116;2023-05-21T12:26:58;100014.59;;;23.90;100.00
59971;BME280;45825;45.434;9.116;2023-05-21T12:29:32;100004.97;;;23.96;100.00
59971;BME280;45825;45.434;9.116;2023-05-21T12:32:01;99999.72;;;24.26;100.00
59971;BME280;45825;45.434;9.116;2023-05-21T12:34:49;100000.53;;;24.50;100.00
59971;BME280;45825;45.434;9.116;2023-05-21T12:37:20;100003.19;;;24.65;100.00
59971;BME280;45825;45.434;9.116;2023-05-21T12:39:47;99991.53;;;24.73;100.00
59971;BME280;45825;45.434;9.116;2023-05-21T12:42:13;99990.31;;;24.75;100.00
59971;BME280;45825;45.434;9.116;2023-05-21T12:44:42;99994.91;;;24.90;100.00
59971;BME280;45825;45.434;9.116;2023-05-21T12:47:09;99998.78;;;24.87;99.48
59971;BME280;45825;45.434;9.116;2023-05-21T12:49:37;99996.09;;;24.87;100.00
59971;BME280;45825;45.434;9.116;2023-05-21T12:52:04;99991.75;;;25.01;92.31
59971;BME280;45825;45.434;9.116;2023-05-21T12:54:34;99989.59;;;25.11;68.76
59971;BME280;45825;45.434;9.116;2023-05-21T12:57:12;99991.75;;;25.01;65.91
59971;BME280;45825;45.434;9.116;2023-05-21T12:59:49;99986.84;;;25.05;65.17
59971;BME280;45825;45.434;9.116;2023-05-21T13:02:25;99990.16;;;24.92;54.99
59971;BME280;45825;45.434;9.116;2023-05-21T13:05:02;99990.63;;;24.80;55.42
59971;BME280;45825;45.434;9.116;2023-05-21T13:07:29;99982.53;;;24.65;56.89
59971;BME280;45825;45.434;9.116;2023-05-21T13:09:55;99983.09;;;24.61;60.50